createdAt,value
2017-08-01T00:02:03.950Z,56.6
2017-08-01T00:07:03.636Z,56.7
2017-08-01T00:12:03.786Z,56.7
2017-08-01T00:17:03.815Z,56.8
2017-08-01T00:22:03.636Z,56.7
2017-08-01T00:27:03.393Z,56.4
2017-08-01T00:32:03.346Z,56.5
2017-08-01T00:37:03.676Z,56.6
2017-08-01T00:42:03.353Z,56.4
2017-08-01T00:47:03.618Z,56.2
2017-08-01T00:52:03.499Z,56.4
2017-08-01T00:57:03.334Z,56.4
2017-08-01T01:02:03.359Z,56.4
2017-08-01T01:07:03.583Z,56.3
2017-08-01T01:12:03.849Z,56.5
2017-08-01T01:17:03.851Z,56.3
2017-08-01T01:22:03.857Z,56.3
2017-08-01T01:27:03.652Z,56.4
2017-08-01T01:32:03.377Z,56.4
2017-08-01T01:37:03.590Z,56.4
2017-08-01T01:42:03.576Z,56.4
2017-08-01T01:47:03.245Z,56.5
2017-08-01T01:52:03.818Z,56.4
2017-08-01T01:57:03.766Z,56.5
2017-08-01T02:02:03.707Z,56.4
2017-08-01T02:07:03.660Z,56.4
2017-08-01T02:12:03.542Z,56.5
2017-08-01T02:17:03.829Z,56.4
2017-08-01T02:22:03.991Z,56.6
2017-08-01T02:27:03.313Z,56.9
2017-08-01T02:32:03.470Z,56.6
2017-08-01T02:37:03.450Z,56.8
2017-08-01T02:42:03.600Z,56.3
2017-08-01T02:47:04.015Z,56.6
2017-08-01T02:52:03.334Z,56.5
2017-08-01T02:57:03.660Z,56.5
2017-08-01T03:02:03.060Z,56.5
2017-08-01T03:07:03.477Z,56.5
2017-08-01T03:12:03.044Z,56.5
2017-08-01T03:17:06.749Z,56.5
2017-08-01T03:22:03.834Z,56.7
2017-08-01T03:27:03.330Z,56.7
2017-08-01T03:32:23.153Z,56.9
2017-08-01T03:37:03.276Z,56.9
2017-08-01T03:42:03.668Z,57.0
2017-08-01T03:47:24.599Z,57.0
2017-08-01T03:52:03.427Z,56.9
2017-08-01T03:57:03.457Z,57.3
2017-08-01T04:02:22.209Z,57.5
2017-08-01T04:07:03.651Z,57.7
2017-08-01T04:12:03.265Z,57.7
2017-08-01T04:17:29.532Z,57.7
2017-08-01T04:22:03.179Z,57.5
2017-08-01T04:27:03.724Z,57.4
2017-08-01T04:32:22.560Z,57.3
2017-08-01T04:37:03.468Z,57.3
2017-08-01T04:42:03.805Z,57.4
2017-08-01T04:47:21.698Z,57.3
2017-08-01T04:52:03.333Z,57.2
2017-08-01T04:57:03.718Z,57.1
2017-08-01T05:02:23.733Z,56.9
2017-08-01T05:07:03.700Z,56.8
2017-08-01T05:12:03.251Z,56.8
2017-08-01T05:17:29.261Z,56.9
2017-08-01T05:22:03.126Z,56.9
2017-08-01T05:27:03.553Z,57.0
2017-08-01T05:32:28.272Z,57.0
2017-08-01T05:37:03.633Z,56.9
2017-08-01T05:42:03.054Z,56.9
2017-08-01T05:47:22.267Z,56.8
2017-08-01T05:52:03.091Z,57.1
2017-08-01T05:57:03.549Z,57.0
2017-08-01T06:02:21.518Z,56.2
2017-08-01T06:07:03.303Z,56.9
2017-08-01T06:12:03.862Z,56.8
2017-08-01T06:22:03.125Z,56.9
2017-08-01T06:27:03.555Z,57.0
2017-08-01T06:37:03.193Z,57.1
2017-08-01T06:42:03.347Z,57.1
2017-08-01T06:47:24.207Z,57.0
2017-08-01T06:52:03.176Z,57.0
2017-08-01T06:57:03.705Z,56.7
2017-08-01T07:02:23.306Z,56.5
2017-08-01T07:07:03.510Z,56.4
2017-08-01T07:12:03.212Z,56.4
2017-08-01T07:17:25.308Z,56.1
2017-08-01T07:22:03.199Z,56.4
2017-08-01T07:27:03.646Z,56.4
2017-08-01T07:32:26.069Z,56.5
2017-08-01T07:37:03.851Z,56.5
2017-08-01T07:42:03.359Z,56.4
2017-08-01T07:52:03.500Z,56.7
2017-08-01T07:57:03.885Z,56.6
2017-08-01T08:02:28.108Z,57.0
2017-08-01T08:07:03.308Z,56.7
2017-08-01T08:12:03.835Z,56.5
2017-08-01T08:17:26.667Z,56.5
2017-08-01T08:22:03.873Z,56.4
2017-08-01T08:27:03.327Z,56.3
2017-08-01T08:32:23.585Z,56.6
2017-08-01T08:37:03.912Z,56.5
2017-08-01T08:42:03.352Z,56.5
2017-08-01T08:47:28.750Z,56.2
2017-08-01T08:52:03.263Z,56.2
2017-08-01T08:57:03.727Z,57.3
2017-08-01T09:07:03.208Z,57.3
2017-08-01T09:12:03.791Z,57.2
2017-08-01T09:17:03.417Z,57.9
2017-08-01T09:22:03.846Z,57.8
2017-08-01T09:27:03.249Z,57.7
2017-08-01T09:37:03.787Z,57.3
2017-08-01T09:42:03.194Z,57.7
2017-08-01T09:47:21.162Z,57.4
2017-08-01T09:52:03.281Z,57.5
2017-08-01T09:57:03.654Z,57.5
2017-08-01T10:02:27.822Z,57.2
2017-08-01T10:07:03.857Z,57.2
2017-08-01T10:12:03.631Z,57.4
2017-08-01T10:17:28.956Z,58.1
2017-08-01T10:22:03.882Z,58.1
2017-08-01T10:27:03.296Z,57.9
2017-08-01T10:32:23.538Z,57.4
2017-08-01T10:37:03.095Z,57.4
2017-08-01T10:42:03.506Z,57.7
2017-08-01T10:47:24.291Z,57.2
2017-08-01T10:52:03.328Z,57.2
2017-08-01T10:57:03.705Z,57.5
2017-08-01T11:02:23.018Z,58.1
2017-08-01T11:07:03.541Z,58.6
2017-08-01T11:12:03.097Z,58.4
2017-08-01T11:22:03.578Z,57.9
2017-08-01T11:27:03.932Z,58.5
2017-08-01T11:32:32.142Z,57.9
2017-08-01T11:37:03.124Z,57.9
2017-08-01T11:42:03.597Z,57.9
2017-08-01T11:47:23.416Z,58.5
2017-08-01T11:52:03.213Z,58.1
2017-08-01T11:57:03.730Z,58.0
2017-08-01T12:02:25.168Z,58.5
2017-08-01T12:07:03.823Z,58.1
2017-08-01T12:12:03.454Z,58.1
2017-08-01T12:17:24.207Z,57.5
2017-08-01T12:22:03.916Z,57.5
2017-08-01T12:27:03.175Z,57.3
2017-08-01T12:32:24.182Z,57.4
2017-08-01T12:37:03.721Z,57.3
2017-08-01T12:42:03.134Z,57.1
2017-08-01T12:47:28.570Z,57.4
2017-08-01T12:52:03.868Z,57.6
2017-08-01T12:57:03.279Z,57.6
2017-08-01T13:07:03.605Z,58.3
2017-08-01T13:12:03.266Z,58.2
2017-08-01T13:17:25.194Z,57.6
2017-08-01T13:22:03.412Z,57.1
2017-08-01T13:27:03.886Z,56.9
2017-08-01T13:32:23.131Z,57.6
2017-08-01T13:37:03.747Z,57.8
2017-08-01T13:42:03.202Z,57.7
2017-08-01T13:47:22.199Z,57.7
2017-08-01T13:52:03.237Z,58.2
2017-08-01T13:57:03.679Z,58.8
2017-08-01T14:02:28.603Z,59.1
2017-08-01T14:07:03.440Z,59.1
2017-08-01T14:12:03.937Z,59.9
2017-08-01T14:22:03.257Z,59.9
2017-08-01T14:27:03.810Z,59.4
2017-08-01T14:37:03.749Z,56.2
2017-08-01T14:42:03.067Z,56.2
2017-08-01T14:47:27.951Z,56.9
2017-08-01T14:52:03.224Z,56.9
2017-08-01T14:57:03.653Z,56.3
2017-08-01T15:02:24.694Z,57.2
2017-08-01T15:07:03.178Z,57.2
2017-08-01T15:12:03.832Z,58.1
2017-08-01T15:17:24.351Z,58.2
2017-08-01T15:22:03.989Z,58.1
2017-08-01T15:27:03.392Z,57.7
2017-08-01T15:32:23.896Z,57.3
2017-08-01T15:37:03.423Z,53.7
2017-08-01T15:42:03.795Z,43.6
2017-08-01T15:47:20.013Z,43.4
2017-08-01T15:52:03.054Z,50.9
2017-08-01T15:57:03.529Z,50.9
2017-08-01T16:02:23.912Z,45.6
2017-08-01T16:07:03.130Z,45.5
2017-08-01T16:12:03.786Z,45.9
2017-08-01T16:17:26.723Z,50.0
2017-08-01T16:22:03.948Z,53.9
2017-08-01T16:27:03.472Z,53.8
2017-08-01T16:32:28.727Z,54.1
2017-08-01T16:37:03.780Z,55.4
2017-08-01T16:42:03.065Z,55.5
2017-08-01T16:52:03.532Z,55.6
2017-08-01T16:57:03.848Z,55.9
2017-08-01T17:02:23.334Z,56.7
2017-08-01T17:07:03.829Z,56.5
2017-08-01T17:12:03.314Z,56.5
2017-08-01T17:17:23.694Z,55.0
2017-08-01T17:22:03.541Z,50.5
2017-08-01T17:27:03.871Z,50.7
2017-08-01T17:32:23.742Z,52.3
2017-08-01T17:37:03.413Z,52.3
2017-08-01T17:42:03.745Z,53.6
2017-08-01T17:47:23.172Z,55.1
2017-08-01T17:52:03.705Z,55.1
2017-08-01T17:57:03.193Z,55.5
2017-08-01T18:02:26.468Z,56.5
2017-08-01T18:07:03.261Z,56.9
2017-08-01T18:12:03.778Z,57.8
2017-08-01T18:17:24.210Z,57.5
2017-08-01T18:22:03.496Z,57.5
2017-08-01T18:27:03.858Z,58.4
2017-08-01T18:32:20.396Z,58.3
2017-08-01T18:37:03.766Z,58.3
2017-08-01T18:42:03.213Z,58.2
2017-08-01T18:47:23.348Z,58.4
2017-08-01T18:52:03.808Z,58.5
2017-08-01T18:57:03.230Z,58.6
2017-08-01T19:02:27.855Z,58.3
2017-08-01T19:07:03.195Z,58.2
2017-08-01T19:12:03.697Z,58.3
2017-08-01T19:17:18.627Z,57.9
2017-08-01T19:22:03.590Z,58.2
2017-08-01T19:27:03.254Z,58.2
2017-08-01T19:32:08.465Z,58.0
2017-08-01T19:37:03.435Z,58.0
2017-08-01T19:42:03.650Z,58.1
2017-08-01T19:47:04.044Z,58.1
2017-08-01T19:52:03.375Z,58.1
2017-08-01T19:57:03.710Z,57.9
2017-08-01T20:02:03.036Z,58.1
2017-08-01T20:07:03.496Z,58.1
2017-08-01T20:12:03.918Z,58.4
2017-08-01T20:17:03.585Z,58.3
2017-08-01T20:22:03.751Z,58.7
2017-08-01T20:27:03.132Z,58.4
2017-08-01T20:32:03.465Z,58.4
2017-08-01T20:37:03.709Z,58.4
2017-08-01T20:42:03.051Z,58.5
2017-08-01T20:47:03.351Z,58.5
2017-08-01T20:52:03.650Z,58.5
2017-08-01T20:57:03.913Z,58.4
2017-08-01T21:02:03.255Z,58.4
2017-08-01T21:07:03.681Z,58.5
2017-08-01T21:12:03.210Z,58.5
2017-08-01T21:17:03.779Z,58.8
2017-08-01T21:22:03.888Z,58.8
2017-08-01T21:27:03.375Z,58.5
2017-08-01T21:32:04.119Z,58.1
2017-08-01T21:37:03.930Z,58.5
2017-08-01T21:42:03.259Z,58.7
2017-08-01T21:47:03.755Z,58.6
2017-08-01T21:52:03.952Z,58.6
2017-08-01T21:57:03.285Z,58.4
2017-08-01T22:02:03.729Z,59.0
2017-08-01T22:07:03.372Z,59.0
2017-08-01T22:12:03.747Z,58.7
2017-08-01T22:22:03.534Z,58.3
2017-08-01T22:27:03.934Z,58.6
2017-08-01T22:32:03.601Z,58.7
2017-08-01T22:37:03.812Z,58.3
2017-08-01T22:42:03.475Z,58.4
2017-08-01T22:47:03.200Z,58.7
2017-08-01T22:52:03.621Z,58.7
2017-08-01T22:57:03.176Z,58.6
2017-08-01T23:02:06.185Z,57.9
2017-08-01T23:07:03.474Z,58.4
2017-08-01T23:12:03.210Z,58.4
2017-08-01T23:17:04.024Z,58.3
2017-08-01T23:22:03.551Z,58.5
2017-08-01T23:27:03.591Z,58.4
2017-08-01T23:32:03.459Z,58.3
2017-08-01T23:37:03.088Z,58.3
2017-08-01T23:42:03.734Z,58.4
2017-08-01T23:47:03.548Z,58.4
2017-08-01T23:52:03.176Z,58.5
2017-08-01T23:57:03.366Z,58.4
